Red Lodge, MT

2:03 AM MDT on August 22, 2014 (GMT -0600)
Billings Logan International | Change Station
CLOSE
Current Station
Airport
Location: Billings,
Elevation: 3570 ft
Nearby Weather Stations

Elev 3570 ft 45.81 °N, 108.54 °W | Updated 10 minutes ago

Mostly Cloudy
Mostly Cloudy
55 °F
Feels Like 55 °F
N
5
Wind Variable Wind from NNE

Today
High -- | Low -- °F
--% Chance of Precip.
Yesterday
High -- | Low -- °F
Precip. -- in
6:27 AM 8:12 PM
Waning Crescent, 9% visible
Pressure 30.06 in
Visibility 10.0 miles
Clouds Mostly Cloudy 22000 ft
Dew Point 52 °F
Humidity 89%
Rainfall 0.00 in
Snow Depth Not available.
UV 0 out of 12
Pollen 4.30 out of 12
Air Quality Not available.
Flu Activity Not available.
METAR KBIL 220753Z 02004KT 10SM BKN220 13/11 A3010 RMK AO2 SLP178 T01280111 $

More Conditions Fewer Conditions

Pressure 30.06 in
Visibility 10.0 miles
Clouds Mostly Cloudy 22000 ft
Dew Point 52 °F
Humidity 89%
Rainfall 0.00 in
Snow Depth Not available.
UV 0 out of 12
Pollen 4.30 out of 12
Air Quality Not available.
Flu Activity Not available.
METAR KBIL 220753Z 02004KT 10SM BKN220 13/11 A3010 RMK AO2 SLP178 T01280111 $

More Conditions Fewer Conditions

10-Day Weather Forecast

Almanac

Astronomy

Aug. 22, 2014 Rise Set
Actual Time 6:27 AM MDT 8:12 PM MDT
Civil Twilight 5:55 AM MDT 8:43 PM MDT
Nautical Twilight 5:17 AM MDT 9:21 PM MDT
Astronomical Twilight 4:35 AM MDT 10:02 PM MDT
Moon 3:49 AM MDT 6:25 PM MDT
Length of Visible Light 14h 47m
Length of Day
13h 45m
Tomorrow will be 2m 56s shorter.
Waning Crescent, 9% of the Moon is Illuminated
Today
Waning Crescent
Aug 25
New
Sep 2
First Quarter
Sep 8
Full
Sep 15
Last Quarter

Today's Extremes

State Highs State Lows

Community

WunderPhotos

Upload Photos

1,746,142 photos uploaded!

Nearby

Snow Depth

Station Depth Elevation
Cole Creek 1 in 7850 ft
Burnt Mountain 1 in 5880 ft
White Mill 2 in 8700 ft
Fisher Creek 0 in 9100 ft
Placer Basin 0 in 8830 ft

Earthquake Activity

City Distance Mag. Time & Date
No recent earthquake activity has been reported nearby.
Minimum magnitude displayed is 2.5.

Coastal Water Temperatures

Place Temperature
No Stations Reporting

Nearby Weather Stations